createdAt,value
2023-12-24T00:01:42.226Z,1.00
2023-12-24T00:04:09.459Z,0.00
2023-12-24T00:06:36.684Z,0.60
2023-12-24T00:09:04.256Z,0.00
2023-12-24T00:11:32.083Z,0.00
2023-12-24T00:13:59.476Z,0.60
2023-12-24T00:16:26.693Z,0.00
2023-12-24T00:18:54.107Z,0.00
2023-12-24T00:21:21.374Z,1.00
2023-12-24T00:23:49.906Z,0.40
2023-12-24T00:26:17.815Z,0.60
2023-12-24T00:28:46.173Z,0.00
2023-12-24T00:31:13.770Z,0.00
2023-12-24T00:33:41.009Z,0.00
2023-12-24T00:36:08.319Z,0.00
2023-12-24T00:38:35.723Z,0.40
2023-12-24T00:41:02.971Z,0.00
2023-12-24T00:43:30.082Z,0.00
2023-12-24T00:45:57.628Z,0.00
2023-12-24T00:48:24.969Z,0.00
2023-12-24T00:50:52.241Z,0.00
2023-12-24T00:53:19.968Z,0.00
2023-12-24T00:55:47.346Z,0.00
2023-12-24T00:58:16.480Z,0.00
2023-12-24T01:00:43.993Z,0.00
2023-12-24T01:03:11.170Z,0.00
2023-12-24T01:05:39.176Z,0.00
2023-12-24T01:08:06.902Z,0.00
2023-12-24T01:10:34.256Z,0.60
2023-12-24T01:13:01.604Z,0.00
2023-12-24T01:15:28.999Z,0.00
2023-12-24T01:17:56.367Z,0.00
2023-12-24T01:20:25.241Z,0.40
2023-12-24T01:22:52.828Z,0.80
2023-12-24T01:25:20.155Z,0.60
2023-12-24T01:27:47.332Z,0.00
2023-12-24T01:30:14.741Z,0.00
2023-12-24T01:32:42.070Z,0.00
2023-12-24T01:35:09.898Z,0.00
2023-12-24T01:37:37.197Z,0.00
2023-12-24T01:40:04.839Z,0.00
2023-12-24T01:42:31.985Z,0.00
2023-12-24T01:44:59.330Z,0.00
2023-12-24T01:47:27.077Z,0.40
2023-12-24T01:49:54.316Z,0.00
2023-12-24T01:52:21.712Z,0.00
2023-12-24T01:54:49.659Z,0.40
2023-12-24T01:57:17.132Z,0.20
2023-12-24T01:59:44.876Z,1.00
2023-12-24T02:02:13.137Z,0.00
2023-12-24T02:04:40.554Z,0.00
2023-12-24T02:07:08.736Z,0.20
2023-12-24T02:09:36.584Z,0.00
2023-12-24T02:12:04.059Z,0.00
2023-12-24T02:14:31.715Z,0.00
2023-12-24T02:17:01.309Z,1.00
2023-12-24T02:19:30.232Z,0.00
2023-12-24T02:21:57.527Z,0.00
2023-12-24T02:24:24.759Z,0.40
2023-12-24T02:27:05.390Z,0.00
2023-12-24T02:29:38.226Z,1.60
2023-12-24T02:32:16.804Z,0.00
2023-12-24T02:34:45.487Z,0.00
2023-12-24T02:37:12.916Z,0.00
2023-12-24T02:39:40.564Z,0.00
2023-12-24T02:42:08.251Z,0.00
2023-12-24T02:44:37.169Z,0.00
2023-12-24T02:47:05.076Z,0.00
2023-12-24T02:49:32.442Z,0.00
2023-12-24T02:51:59.642Z,0.00
2023-12-24T02:54:27.138Z,0.00
2023-12-24T02:56:54.281Z,0.00
2023-12-24T02:59:21.543Z,0.00
2023-12-24T03:01:48.914Z,0.20
2023-12-24T03:04:17.597Z,0.00
2023-12-24T03:06:44.717Z,0.80
2023-12-24T03:09:12.847Z,0.00
2023-12-24T03:11:40.086Z,0.00
2023-12-24T03:14:07.628Z,0.00
2023-12-24T03:16:34.824Z,0.00
2023-12-24T03:19:02.149Z,1.20
2023-12-24T03:21:29.579Z,0.00
2023-12-24T03:23:56.971Z,0.00
2023-12-24T03:26:25.265Z,2.60
2023-12-24T03:28:53.254Z,4.00
2023-12-24T03:31:20.915Z,0.00
2023-12-24T03:33:48.190Z,1.00
2023-12-24T03:36:15.605Z,0.00
2023-12-24T03:38:42.886Z,0.20
2023-12-24T03:41:10.479Z,0.20
2023-12-24T03:43:37.711Z,0.00
2023-12-24T03:46:05.162Z,0.00
2023-12-24T03:48:34.282Z,0.80
2023-12-24T03:51:01.618Z,0.00
2023-12-24T03:53:29.968Z,0.80
2023-12-24T03:55:57.304Z,0.00
2023-12-24T03:58:24.628Z,0.00
2023-12-24T04:00:52.020Z,0.00
2023-12-24T04:03:19.261Z,1.00
2023-12-24T04:05:46.550Z,0.00
2023-12-24T04:08:14.107Z,0.00
2023-12-24T04:10:43.500Z,0.00
2023-12-24T04:13:13.861Z,0.00
2023-12-24T04:15:41.220Z,0.00
2023-12-24T04:18:08.479Z,0.00
2023-12-24T04:20:35.849Z,0.00
2023-12-24T04:23:03.787Z,0.00
2023-12-24T04:25:31.050Z,0.00
2023-12-24T04:27:58.487Z,0.00
2023-12-24T04:30:25.916Z,0.00
2023-12-24T04:32:53.448Z,0.80
2023-12-24T04:35:21.615Z,0.00
2023-12-24T04:37:48.847Z,0.00
2023-12-24T04:40:16.324Z,0.00
2023-12-24T04:42:43.660Z,0.00
2023-12-24T04:45:11.047Z,0.00
2023-12-24T04:47:39.536Z,0.00
2023-12-24T04:50:07.737Z,0.00
2023-12-24T04:52:37.151Z,0.80
2023-12-24T04:55:08.100Z,0.40
2023-12-24T04:57:35.714Z,0.00
2023-12-24T05:00:03.156Z,1.00
2023-12-24T05:02:30.990Z,0.00
2023-12-24T05:04:58.425Z,0.00
2023-12-24T05:07:25.796Z,0.40
2023-12-24T05:09:53.511Z,0.00
2023-12-24T05:12:20.986Z,0.00
2023-12-24T05:14:48.084Z,0.00
2023-12-24T05:17:15.658Z,0.00
2023-12-24T05:19:43.318Z,0.00
2023-12-24T05:22:10.626Z,0.00
2023-12-24T05:24:37.970Z,0.00
2023-12-24T05:27:05.563Z,3.20
2023-12-24T05:29:32.808Z,0.00
2023-12-24T05:32:00.553Z,0.00
2023-12-24T05:34:27.823Z,0.00
2023-12-24T05:36:55.252Z,0.00
2023-12-24T05:39:22.431Z,0.00
2023-12-24T05:41:49.781Z,0.00
2023-12-24T05:44:17.558Z,0.00
2023-12-24T05:46:44.990Z,0.20
2023-12-24T05:49:12.108Z,0.80
2023-12-24T05:51:39.802Z,2.40
2023-12-24T05:54:06.994Z,0.60
2023-12-24T05:56:34.496Z,1.00
2023-12-24T05:59:01.936Z,0.80
2023-12-24T06:01:29.333Z,1.00
2023-12-24T06:03:56.601Z,0.00
2023-12-24T06:06:24.070Z,0.40
2023-12-24T06:08:51.556Z,0.00
2023-12-24T06:11:19.110Z,0.00
2023-12-24T06:13:46.405Z,0.00
2023-12-24T06:16:14.720Z,0.00
2023-12-24T06:18:42.447Z,0.00
2023-12-24T06:21:13.551Z,0.00
2023-12-24T06:23:41.160Z,0.00
2023-12-24T06:26:08.593Z,1.00
2023-12-24T06:28:36.257Z,1.00
2023-12-24T06:31:03.716Z,1.00
2023-12-24T06:33:31.229Z,0.20
2023-12-24T06:35:58.410Z,1.00
2023-12-24T06:38:25.848Z,0.60
2023-12-24T06:40:53.171Z,0.00
2023-12-24T06:43:20.604Z,1.00
2023-12-24T06:45:47.752Z,0.00
2023-12-24T06:48:15.521Z,0.80
2023-12-24T06:50:42.918Z,2.80
2023-12-24T06:53:10.260Z,0.00
2023-12-24T06:55:37.689Z,0.00
2023-12-24T06:58:05.483Z,0.00
2023-12-24T07:00:32.778Z,0.20
2023-12-24T07:03:00.071Z,2.00
2023-12-24T07:05:29.691Z,0.00
2023-12-24T07:07:56.981Z,1.20
2023-12-24T07:10:24.298Z,0.00
2023-12-24T07:12:51.990Z,0.80
2023-12-24T07:15:19.651Z,1.00
2023-12-24T07:17:47.216Z,1.00
2023-12-24T07:20:15.151Z,3.20
2023-12-24T07:22:42.433Z,0.40
2023-12-24T07:25:10.172Z,0.40
2023-12-24T07:27:37.769Z,1.40
2023-12-24T07:30:05.489Z,0.40
2023-12-24T07:32:33.163Z,0.00
2023-12-24T07:35:00.468Z,1.00
2023-12-24T07:37:27.974Z,1.00
2023-12-24T07:39:55.141Z,0.80
2023-12-24T07:42:24.135Z,2.60
2023-12-24T07:44:53.028Z,2.80
2023-12-24T07:47:20.685Z,1.00
2023-12-24T07:49:48.180Z,3.60
2023-12-24T07:52:15.765Z,1.00
2023-12-24T07:54:42.970Z,1.00
2023-12-24T07:57:10.200Z,2.00
2023-12-24T07:59:37.772Z,1.20
2023-12-24T08:02:05.244Z,1.00
2023-12-24T08:04:33.205Z,1.40
2023-12-24T08:07:00.996Z,2.00
2023-12-24T08:09:28.275Z,1.20
2023-12-24T08:11:55.917Z,2.60
2023-12-24T08:14:23.281Z,1.40
2023-12-24T08:16:51.095Z,0.80
2023-12-24T08:19:18.392Z,0.20
2023-12-24T08:21:46.055Z,0.00
2023-12-24T08:24:13.688Z,0.80
2023-12-24T08:26:41.162Z,2.00
2023-12-24T08:29:09.436Z,3.40
2023-12-24T08:31:37.333Z,2.40
2023-12-24T08:34:04.508Z,3.20
2023-12-24T08:36:32.034Z,3.00
2023-12-24T08:38:59.244Z,1.40
2023-12-24T08:41:26.597Z,1.20
2023-12-24T08:43:53.863Z,3.20
2023-12-24T08:46:21.347Z,1.00
2023-12-24T08:48:48.792Z,2.00
2023-12-24T08:51:16.229Z,0.20
2023-12-24T08:53:43.650Z,2.00
2023-12-24T08:56:11.057Z,5.00
2023-12-24T08:58:38.628Z,2.00
2023-12-24T09:01:06.155Z,5.00
2023-12-24T09:03:33.530Z,1.40
2023-12-24T09:06:00.851Z,1.00
2023-12-24T09:08:28.071Z,1.40
2023-12-24T09:10:55.469Z,1.00
2023-12-24T09:13:23.321Z,2.20
2023-12-24T09:15:50.780Z,2.00
2023-12-24T09:18:18.146Z,1.80
2023-12-24T09:20:45.764Z,2.00
2023-12-24T09:23:13.230Z,1.40
2023-12-24T09:25:40.498Z,1.00
2023-12-24T09:28:08.458Z,1.00
2023-12-24T09:30:35.931Z,3.40
2023-12-24T09:33:04.651Z,1.20
2023-12-24T09:35:32.114Z,5.40
2023-12-24T09:37:59.394Z,3.80
2023-12-24T09:40:26.852Z,3.00
2023-12-24T09:42:54.969Z,3.00
2023-12-24T09:45:23.512Z,14.80
2023-12-24T09:47:50.685Z,11.40
2023-12-24T09:50:18.328Z,12.00
2023-12-24T09:52:46.813Z,17.20
2023-12-24T09:55:14.235Z,16.40
2023-12-24T09:57:42.013Z,10.20
2023-12-24T10:00:11.650Z,6.00
2023-12-24T10:02:39.168Z,7.60
2023-12-24T10:05:07.237Z,5.60
2023-12-24T10:07:41.680Z,8.00
2023-12-24T10:10:10.997Z,6.40
2023-12-24T10:12:38.164Z,6.60
2023-12-24T10:15:05.898Z,6.20
2023-12-24T10:17:35.526Z,6.20
2023-12-24T10:20:11.216Z,3.00
2023-12-24T10:22:38.906Z,6.40
2023-12-24T10:25:09.698Z,3.80
2023-12-24T10:27:37.184Z,5.40
2023-12-24T10:30:12.956Z,6.60
2023-12-24T10:32:43.614Z,5.60
2023-12-24T10:35:11.692Z,8.00
2023-12-24T10:37:39.421Z,7.00
2023-12-24T10:40:10.862Z,8.00
2023-12-24T10:42:42.333Z,10.00
2023-12-24T10:45:10.661Z,9.80
2023-12-24T10:47:39.856Z,7.00
2023-12-24T10:50:08.289Z,5.20
2023-12-24T10:52:35.880Z,4.60
2023-12-24T10:55:04.557Z,8.00
2023-12-24T10:58:05.483Z,3.00
2023-12-24T11:00:32.967Z,5.80
2023-12-24T11:03:00.702Z,6.20
2023-12-24T11:05:44.241Z,3.00
2023-12-24T11:08:20.737Z,9.00
2023-12-24T11:10:55.289Z,4.20
2023-12-24T11:13:31.735Z,5.40
2023-12-24T11:16:03.136Z,6.00
2023-12-24T11:18:50.503Z,4.20
2023-12-24T11:21:20.126Z,5.40
2023-12-24T11:24:09.355Z,4.20
2023-12-24T11:26:36.909Z,8.20
2023-12-24T11:29:43.718Z,7.80
2023-12-24T11:32:26.914Z,3.00
2023-12-24T11:34:55.455Z,12.00
2023-12-24T11:37:40.978Z,10.60
2023-12-24T11:40:16.412Z,9.40
2023-12-24T11:42:52.629Z,11.40
2023-12-24T11:45:25.554Z,8.80
2023-12-24T11:47:53.918Z,12.60
2023-12-24T11:50:21.975Z,14.60
2023-12-24T11:52:50.351Z,9.00
2023-12-24T11:55:21.236Z,9.60
2023-12-24T11:57:52.412Z,6.00
2023-12-24T12:00:30.159Z,7.80
2023-12-24T12:03:00.856Z,0.80
2023-12-24T12:05:29.586Z,2.20
2023-12-24T12:07:57.599Z,5.80
2023-12-24T12:10:25.128Z,5.00
2023-12-24T12:12:53.061Z,4.60
2023-12-24T12:15:25.429Z,3.00
2023-12-24T12:17:53.034Z,2.20
2023-12-24T12:20:20.713Z,6.00
2023-12-24T12:22:49.064Z,6.00
2023-12-24T12:25:16.343Z,6.60
2023-12-24T12:27:45.911Z,7.00
2023-12-24T12:30:14.976Z,8.00
2023-12-24T12:32:42.113Z,6.80
2023-12-24T12:35:12.124Z,5.00
2023-12-24T12:37:39.884Z,3.40
2023-12-24T12:40:08.179Z,3.80
2023-12-24T12:42:42.902Z,6.00
2023-12-24T12:45:12.043Z,2.80
2023-12-24T12:47:39.893Z,2.40
2023-12-24T12:50:07.890Z,2.00
2023-12-24T12:52:36.031Z,2.40
2023-12-24T12:55:08.037Z,2.40
2023-12-24T12:57:38.109Z,3.00
2023-12-24T13:00:11.607Z,2.00
2023-12-24T13:02:40.859Z,2.00
2023-12-24T13:05:29.646Z,3.00
2023-12-24T13:07:58.280Z,3.00
2023-12-24T13:10:31.565Z,0.00
2023-12-24T13:13:11.558Z,5.20
2023-12-24T13:15:40.155Z,2.40
2023-12-24T13:18:22.493Z,5.00
2023-12-24T13:20:51.559Z,7.00
2023-12-24T13:23:20.933Z,2.00
2023-12-24T13:25:48.748Z,3.00
2023-12-24T13:28:16.434Z,2.00
2023-12-24T13:30:46.034Z,0.00
2023-12-24T13:33:14.178Z,2.00
2023-12-24T13:35:44.198Z,2.20
2023-12-24T13:38:15.061Z,1.60
2023-12-24T13:40:43.724Z,1.00
2023-12-24T13:43:12.527Z,1.80
2023-12-24T13:45:41.225Z,1.60
2023-12-24T13:48:09.789Z,0.60
2023-12-24T13:50:38.689Z,0.00
2023-12-24T13:53:18.875Z,4.60
2023-12-24T13:55:56.594Z,6.20
2023-12-24T13:58:24.616Z,5.60
2023-12-24T14:00:52.332Z,3.20
2023-12-24T14:03:23.761Z,3.40
2023-12-24T14:05:52.503Z,5.20
2023-12-24T14:08:20.301Z,8.00
2023-12-24T14:10:47.791Z,5.00
2023-12-24T14:13:15.252Z,3.00
2023-12-24T14:15:42.545Z,5.40
2023-12-24T14:18:09.924Z,3.40
2023-12-24T14:20:37.529Z,2.00
2023-12-24T14:23:04.986Z,2.80
2023-12-24T14:25:32.297Z,3.80
2023-12-24T14:27:59.631Z,3.80
2023-12-24T14:30:26.898Z,3.00
2023-12-24T14:32:54.584Z,2.00
2023-12-24T14:35:22.431Z,4.60
2023-12-24T14:37:49.703Z,3.00
2023-12-24T14:40:17.200Z,4.60
2023-12-24T14:42:44.781Z,5.00
2023-12-24T14:45:12.227Z,5.00
2023-12-24T14:47:39.533Z,5.20
2023-12-24T14:50:07.488Z,4.20
2023-12-24T14:52:34.969Z,5.40
2023-12-24T14:55:04.064Z,2.40
2023-12-24T14:57:33.034Z,3.00
2023-12-24T15:00:01.688Z,2.80
2023-12-24T15:02:30.340Z,2.20
2023-12-24T15:04:58.828Z,4.40
2023-12-24T15:07:26.919Z,3.40
2023-12-24T15:09:54.200Z,3.00
2023-12-24T15:12:21.609Z,2.00
2023-12-24T15:14:49.385Z,5.60
2023-12-24T15:17:17.831Z,4.80
2023-12-24T15:19:46.729Z,7.00
2023-12-24T15:22:14.617Z,6.60
2023-12-24T15:24:42.187Z,6.80
2023-12-24T15:27:09.975Z,6.00
2023-12-24T15:29:38.904Z,6.60
2023-12-24T15:32:07.087Z,2.00
2023-12-24T15:34:34.578Z,7.40
2023-12-24T15:37:02.745Z,10.00
2023-12-24T15:39:30.496Z,6.00
2023-12-24T15:41:58.881Z,6.80
2023-12-24T15:44:26.304Z,7.00
2023-12-24T15:46:54.118Z,8.00
2023-12-24T15:49:21.768Z,5.80
2023-12-24T15:51:49.176Z,5.40
2023-12-24T15:54:16.549Z,5.80
2023-12-24T15:56:43.829Z,8.40
2023-12-24T15:59:11.124Z,5.60
2023-12-24T16:01:45.136Z,8.00
2023-12-24T16:04:13.362Z,8.60
2023-12-24T16:06:41.703Z,8.40
2023-12-24T16:09:09.242Z,9.40
2023-12-24T16:11:37.719Z,10.20
2023-12-24T16:14:08.612Z,5.80
2023-12-24T16:16:36.985Z,6.40
2023-12-24T16:19:05.106Z,6.40
2023-12-24T16:21:37.289Z,5.40
2023-12-24T16:24:06.185Z,8.60
2023-12-24T16:26:33.954Z,5.00
2023-12-24T16:29:01.595Z,5.80
2023-12-24T16:31:29.249Z,9.80
2023-12-24T16:33:56.871Z,6.60
2023-12-24T16:36:27.042Z,9.00
2023-12-24T16:38:55.623Z,14.20
2023-12-24T16:41:24.154Z,8.80
2023-12-24T16:43:51.777Z,12.00
2023-12-24T16:46:19.261Z,9.00
2023-12-24T16:48:46.691Z,11.00
2023-12-24T16:51:20.537Z,10.40
2023-12-24T16:53:49.140Z,10.60
2023-12-24T16:56:16.964Z,6.60
2023-12-24T16:58:45.139Z,8.20
2023-12-24T17:01:12.470Z,8.00
2023-12-24T17:03:40.149Z,4.00
2023-12-24T17:06:11.187Z,7.40
2023-12-24T17:08:39.971Z,11.00
2023-12-24T17:11:07.709Z,11.40
2023-12-24T17:13:34.971Z,10.80
2023-12-24T17:16:02.310Z,12.60
2023-12-24T17:18:33.522Z,12.60
2023-12-24T17:21:01.592Z,9.20
2023-12-24T17:23:28.984Z,12.80
2023-12-24T17:25:56.352Z,37.40
2023-12-24T17:28:23.832Z,21.40
2023-12-24T17:30:51.179Z,20.80
2023-12-24T17:33:18.524Z,17.20
2023-12-24T17:35:46.586Z,25.00
2023-12-24T17:38:14.940Z,21.00
2023-12-24T17:40:42.446Z,19.60
2023-12-24T17:43:09.820Z,15.60
2023-12-24T17:45:37.147Z,20.00
2023-12-24T17:48:13.456Z,17.00
2023-12-24T17:50:45.149Z,20.60
2023-12-24T17:53:13.370Z,32.80
2023-12-24T17:55:40.691Z,16.20
2023-12-24T17:58:08.278Z,18.20
2023-12-24T18:00:35.596Z,13.00
2023-12-24T18:03:03.079Z,10.20
2023-12-24T18:05:30.685Z,19.00
2023-12-24T18:07:58.216Z,15.80
2023-12-24T18:10:25.557Z,18.60
2023-12-24T18:12:53.547Z,11.20
2023-12-24T18:15:21.110Z,10.60
2023-12-24T18:17:49.003Z,9.00
2023-12-24T18:20:17.493Z,13.20
2023-12-24T18:22:44.808Z,17.00
2023-12-24T18:25:12.111Z,19.00
2023-12-24T18:27:39.390Z,21.80
2023-12-24T18:30:07.454Z,17.60
2023-12-24T18:32:35.299Z,21.60
2023-12-24T18:35:02.917Z,9.20
2023-12-24T18:37:31.172Z,21.20
2023-12-24T18:39:58.763Z,22.60
2023-12-24T18:42:26.189Z,15.80
2023-12-24T18:44:53.564Z,25.60
2023-12-24T18:47:21.030Z,21.20
2023-12-24T18:49:48.442Z,18.40
2023-12-24T18:52:15.747Z,15.60
2023-12-24T18:54:46.364Z,13.60
2023-12-24T18:57:15.088Z,12.60
2023-12-24T18:59:42.585Z,11.60
2023-12-24T19:02:09.943Z,12.00
2023-12-24T19:04:37.980Z,11.00
2023-12-24T19:07:07.737Z,8.20
2023-12-24T19:09:35.578Z,15.80
2023-12-24T19:12:03.393Z,10.40
2023-12-24T19:14:30.830Z,15.80
2023-12-24T19:16:58.294Z,14.40
2023-12-24T19:19:25.961Z,10.60
2023-12-24T19:21:53.549Z,13.40
2023-12-24T19:24:25.061Z,14.60
2023-12-24T19:26:52.563Z,13.40
2023-12-24T19:29:19.797Z,9.00
2023-12-24T19:31:47.084Z,12.20
2023-12-24T19:34:14.569Z,10.60
2023-12-24T19:36:41.809Z,12.00
2023-12-24T19:39:09.045Z,8.80
2023-12-24T19:41:36.458Z,10.00
2023-12-24T19:44:03.665Z,14.20
2023-12-24T19:46:30.924Z,11.00
2023-12-24T19:48:58.608Z,10.00
2023-12-24T19:51:28.585Z,9.60
2023-12-24T19:53:56.066Z,10.40
2023-12-24T19:56:23.329Z,11.20
2023-12-24T19:58:54.804Z,19.60
2023-12-24T20:01:31.314Z,17.40
2023-12-24T20:04:08.461Z,12.60
2023-12-24T20:06:37.617Z,17.00
2023-12-24T20:09:05.389Z,23.40
2023-12-24T20:11:32.969Z,22.00
2023-12-24T20:14:00.565Z,25.60
2023-12-24T20:16:27.889Z,18.00
2023-12-24T20:18:55.675Z,8.40
2023-12-24T20:21:23.075Z,6.80
2023-12-24T20:23:50.611Z,8.80
2023-12-24T20:26:18.167Z,14.60
2023-12-24T20:28:45.535Z,19.20
2023-12-24T20:31:16.088Z,11.00
2023-12-24T20:33:46.805Z,15.00
2023-12-24T20:36:16.762Z,16.20
2023-12-24T20:38:44.212Z,12.00
2023-12-24T20:41:12.330Z,15.00
2023-12-24T20:43:39.535Z,15.60
2023-12-24T20:46:07.485Z,26.40
2023-12-24T20:48:35.374Z,12.80
2023-12-24T20:51:04.089Z,26.00
2023-12-24T20:53:31.809Z,25.60
2023-12-24T20:55:59.282Z,20.20
2023-12-24T20:58:26.657Z,13.40
2023-12-24T21:00:55.853Z,12.40
2023-12-24T21:03:23.439Z,14.40
2023-12-24T21:05:51.233Z,10.00
2023-12-24T21:08:19.130Z,8.00
2023-12-24T21:10:46.327Z,9.80
2023-12-24T21:13:13.770Z,11.60
2023-12-24T21:15:41.354Z,7.00
2023-12-24T21:18:09.165Z,2.80
2023-12-24T21:20:36.545Z,5.40
2023-12-24T21:23:04.223Z,6.40
2023-12-24T21:25:31.529Z,10.20
2023-12-24T21:27:58.752Z,5.00
2023-12-24T21:30:26.185Z,10.60
2023-12-24T21:32:53.852Z,17.60
2023-12-24T21:35:21.383Z,11.20
2023-12-24T21:37:49.050Z,7.80
2023-12-24T21:40:16.539Z,4.40
2023-12-24T21:42:44.035Z,5.40
2023-12-24T21:45:11.665Z,7.60
2023-12-24T21:47:39.095Z,7.00
2023-12-24T21:50:07.860Z,3.00
2023-12-24T21:52:35.290Z,8.00
2023-12-24T21:55:02.467Z,5.20
2023-12-24T21:57:30.148Z,10.80
2023-12-24T21:59:57.528Z,9.00
2023-12-24T22:02:24.941Z,5.80
2023-12-24T22:04:52.622Z,6.80
2023-12-24T22:07:20.111Z,10.00
2023-12-24T22:09:47.302Z,7.80
2023-12-24T22:12:14.590Z,5.20
2023-12-24T22:14:42.163Z,2.00
2023-12-24T22:17:09.464Z,7.00
2023-12-24T22:19:36.919Z,7.20
2023-12-24T22:22:04.389Z,8.60
2023-12-24T22:24:31.866Z,8.00
2023-12-24T22:26:59.337Z,5.40
2023-12-24T22:29:26.641Z,5.20
2023-12-24T22:31:54.074Z,5.00
2023-12-24T22:34:21.833Z,7.40
2023-12-24T22:36:49.923Z,7.20
2023-12-24T22:39:17.936Z,4.20
2023-12-24T22:41:45.399Z,4.40
2023-12-24T22:44:12.880Z,5.80
2023-12-24T22:46:42.248Z,8.40
2023-12-24T22:49:09.760Z,5.40
2023-12-24T22:51:37.282Z,2.00
2023-12-24T22:54:04.614Z,1.00
2023-12-24T22:56:31.885Z,3.20
2023-12-24T22:58:59.102Z,1.20
2023-12-24T23:01:26.338Z,1.00
2023-12-24T23:03:53.557Z,3.20
2023-12-24T23:06:21.563Z,2.20
2023-12-24T23:08:49.158Z,8.80
2023-12-24T23:11:16.731Z,10.80
2023-12-24T23:13:44.384Z,8.40
2023-12-24T23:16:11.676Z,5.20
2023-12-24T23:18:41.436Z,7.80
2023-12-24T23:21:09.143Z,2.80
2023-12-24T23:23:36.910Z,6.00
2023-12-24T23:26:04.318Z,4.40
2023-12-24T23:28:31.483Z,4.60
2023-12-24T23:30:58.829Z,4.00
2023-12-24T23:33:26.151Z,5.20
2023-12-24T23:36:02.383Z,2.80
2023-12-24T23:38:36.410Z,3.20
2023-12-24T23:41:03.990Z,1.60
2023-12-24T23:43:31.357Z,1.40
2023-12-24T23:45:58.851Z,4.80
2023-12-24T23:48:26.361Z,2.20
2023-12-24T23:50:53.912Z,1.00
2023-12-24T23:53:21.457Z,4.00
2023-12-24T23:55:48.840Z,1.00
2023-12-24T23:58:16.299Z,4.80
